Time;durP1;ratioP1;P1;durP2;ratioP2;P2;SDS_P1;SDS_P2;PMS_P1;PMS_P2;Temp;Humidity;BMP_temperature;BMP_pressure;BME280_temperature;BME280_humidity;BME280_pressure;Samples;Min_cycle;Max_cycle;Signal;HPM_P1;HPM_P2
2023/09/16 00:00:06;;;;;;;2.35;2.25;;;21.00;99.90;;;21.28;69.51;101294.41;5045109;28;20049;-70
2023/09/16 00:02:34;;;;;;;2.10;2.00;;;21.00;99.90;;;21.23;69.81;101289.25;5045844;28;20375;-70
2023/09/16 00:05:04;;;;;;;3.95;3.58;;;20.90;99.90;;;21.26;70.06;101293.59;5037679;28;20053;-69
2023/09/16 00:07:33;;;;;;;2.60;2.50;;;20.90;99.90;;;21.24;70.05;101295.47;5048169;28;20103;-70
2023/09/16 00:10:03;;;;;;;2.50;2.40;;;20.90;99.90;;;21.20;70.21;101299.25;5042153;28;20071;-70
2023/09/16 00:12:31;;;;;;;2.33;2.22;;;20.80;99.90;;;21.21;70.24;101292.94;5040278;28;20463;-70
2023/09/16 00:15:00;;;;;;;2.55;2.45;;;20.80;99.90;;;21.19;70.41;101301.09;5049531;28;20479;-69
2023/09/16 00:17:28;;;;;;;2.28;2.17;;;20.80;99.90;;;21.20;70.39;101301.94;5038591;28;20083;-69
2023/09/16 00:19:58;;;;;;;3.25;3.15;;;20.80;99.90;;;21.17;70.37;101302.06;5043523;28;20049;-69
2023/09/16 00:22:28;;;;;;;2.42;2.33;;;20.80;99.90;;;21.17;70.25;101294.88;5046327;28;20057;-69
2023/09/16 00:24:56;;;;;;;2.70;2.60;;;20.80;99.90;;;21.14;70.28;101292.31;5051173;28;20057;-69
2023/09/16 00:27:26;;;;;;;2.50;2.40;;;20.80;99.90;;;21.14;70.33;101286.03;5039285;28;20041;-69
2023/09/16 00:29:55;;;;;;;2.80;2.70;;;20.80;99.90;;;21.11;70.42;101291.56;5048225;28;20423;-70
2023/09/16 00:32:23;;;;;;;2.60;2.50;;;20.70;99.90;;;21.08;70.51;101287.16;5046842;28;20045;-69
2023/09/16 00:34:52;;;;;;;8.77;6.40;;;20.70;99.90;;;21.09;70.57;101288.06;5036776;28;20053;-69
2023/09/16 00:37:21;;;;;;;2.40;2.30;;;20.70;99.90;;;21.07;70.69;101295.31;5045831;28;20111;-69
2023/09/16 00:39:49;;;;;;;2.38;2.28;;;20.70;99.90;;;20.74;71.04;101284.06;5044173;28;20452;-69
2023/09/16 00:42:18;;;;;;;2.63;2.53;;;20.50;99.90;;;20.84;70.95;101288.13;5037612;28;20878;-69
2023/09/16 00:44:47;;;;;;;2.25;2.15;;;20.50;99.90;;;20.63;71.63;101289.84;5049332;28;20069;-69
2023/09/16 00:47:16;;;;;;;3.17;3.08;;;20.30;99.90;;;20.58;72.01;101286.47;5040316;28;20049;-69
2023/09/16 00:49:44;;;;;;;2.53;2.42;;;20.30;99.90;;;20.30;72.87;101284.91;5041355;28;20095;-70
2023/09/16 00:52:13;;;;;;;2.83;2.72;;;20.00;99.90;;;20.29;73.23;101289.38;5048836;28;20079;-69
2023/09/16 00:54:41;;;;;;;3.03;2.88;;;19.90;99.90;;;20.27;73.33;101285.88;5032183;28;20475;-70
2023/09/16 00:57:15;;;;;;;2.58;2.47;;;19.90;99.90;;;20.03;74.37;101284.09;5033264;28;20128;-69
2023/09/16 00:59:43;;;;;;;2.40;2.30;;;19.60;99.90;;;20.11;74.17;101287.34;5045105;28;20053;-69
2023/09/16 01:02:15;;;;;;;2.70;2.60;;;19.70;99.90;;;19.96;74.41;101279.84;5035912;28;20106;-69
2023/09/16 01:04:44;;;;;;;2.40;2.30;;;19.60;99.90;;;19.83;75.11;101281.22;5047266;28;20129;-69
2023/09/16 01:07:14;;;;;;;4.13;3.72;;;19.40;99.90;;;19.74;75.44;101286.94;5041473;28;20464;-69
2023/09/16 01:09:43;;;;;;;3.03;2.92;;;19.40;99.90;;;19.65;76.05;101273.81;5038360;28;20124;-69
2023/09/16 01:12:11;;;;;;;2.33;2.22;;;19.30;99.90;;;19.80;75.93;101284.91;5048787;28;20053;-69
2023/09/16 01:14:39;;;;;;;2.45;2.35;;;19.40;99.90;;;19.81;75.68;101272.34;5038314;28;20518;-70
2023/09/16 01:17:24;;;;;;;2.50;2.40;;;19.40;99.90;;;19.90;75.53;101269.31;5042761;28;20049;-69
2023/09/16 01:20:02;;;;;;;2.80;2.70;;;19.50;99.90;;;19.99;75.29;101266.31;5048871;28;20123;-69
2023/09/16 01:22:31;;;;;;;2.40;2.30;;;19.60;99.90;;;20.08;74.93;101262.41;5038001;28;20135;-69
2023/09/16 01:25:04;;;;;;;3.30;3.20;;;19.70;99.90;;;20.15;74.65;101264.81;5047669;28;20052;-69
2023/09/16 01:27:34;;;;;;;3.10;3.00;;;19.80;99.90;;;20.22;74.42;101263.69;5047391;28;20052;-69
2023/09/16 01:30:03;;;;;;;2.55;2.45;;;19.90;99.90;;;20.29;74.15;101264.31;5036248;28;20054;-69
2023/09/16 01:32:39;;;;;;;2.60;2.50;;;20.00;99.90;;;20.25;73.88;101255.50;5045414;28;20068;-69
2023/09/16 01:35:14;;;;;;;2.60;2.50;;;19.90;99.90;;;20.03;73.80;101216.94;5044931;28;20067;-69
2023/09/16 01:37:45;;;;;;;2.60;2.50;;;20.00;99.90;;;20.27;73.99;101264.38;5048655;28;20045;-69
2023/09/16 01:40:16;;;;;;;2.90;2.80;;;20.00;99.90;;;20.32;73.67;101266.91;5047137;28;20041;-69
2023/09/16 01:42:46;;;;;;;2.67;2.58;;;19.90;99.90;;;20.29;73.70;101265.22;5042439;28;20076;-69
2023/09/16 01:45:14;;;;;;;2.70;2.60;;;20.00;99.90;;;20.27;73.64;101263.50;5038718;28;20479;-69
2023/09/16 01:47:44;;;;;;;2.67;2.58;;;19.90;99.90;;;20.26;73.54;101270.72;5048653;28;20037;-69
2023/09/16 01:50:13;;;;;;;2.50;2.40;;;20.00;99.90;;;20.25;73.71;101260.00;5054297;28;20053;-69
2023/09/16 01:52:41;;;;;;;2.83;2.72;;;19.90;99.90;;;20.26;73.65;101262.66;5052143;28;20715;-69
2023/09/16 01:55:10;;;;;;;3.88;3.58;;;19.90;99.90;;;20.30;73.85;101263.41;5037607;28;20119;-69
2023/09/16 01:57:40;;;;;;;2.83;2.72;;;20.00;99.90;;;20.17;73.73;101262.94;5066693;28;20083;-69
2023/09/16 02:00:10;;;;;;;5.70;5.40;;;19.90;99.90;;;20.08;74.06;101263.28;5047709;28;20152;-69
2023/09/16 02:02:41;;;;;;;3.25;3.15;;;19.80;99.90;;;20.01;74.37;101253.72;5042320;28;20649;-69
2023/09/16 02:05:11;;;;;;;2.70;2.60;;;19.70;99.90;;;20.12;74.52;101259.56;5047060;28;20049;-69
2023/09/16 02:07:40;;;;;;;2.60;2.50;;;19.80;99.90;;;20.16;74.36;101252.25;5034516;28;20505;-69
2023/09/16 02:10:09;;;;;;;3.85;3.65;;;19.80;99.90;;;20.14;74.36;101264.88;5047092;28;20050;-69
2023/09/16 02:12:38;;;;;;;2.88;2.78;;;19.80;99.90;;;19.94;75.19;101260.22;5046640;28;20064;-69
2023/09/16 02:15:11;;;;;;;3.08;2.97;;;19.60;99.90;;;19.88;75.38;101263.13;5051772;28;20128;-69
2023/09/16 02:17:40;;;;;;;3.38;3.28;;;19.50;99.90;;;19.90;75.52;101260.41;5065960;28;20483;-69
2023/09/16 02:20:11;;;;;;;2.92;2.83;;;19.50;99.90;;;19.93;75.42;101257.59;5060618;28;20114;-69
2023/09/16 02:22:41;;;;;;;2.50;2.40;;;19.60;99.90;;;20.06;75.26;101264.28;5050960;28;20073;-69
2023/09/16 02:25:10;;;;;;;4.43;4.22;;;19.70;99.90;;;20.13;74.90;101261.28;5050574;28;20083;-69
2023/09/16 02:27:38;;;;;;;2.78;2.67;;;19.80;99.90;;;20.13;74.91;101264.00;5041353;28;20052;-69
2023/09/16 02:30:10;;;;;;;2.67;2.58;;;19.80;99.90;;;20.14;74.77;101265.75;5044730;28;20490;-69
2023/09/16 02:32:38;;;;;;;3.65;3.55;;;19.80;99.90;;;20.17;74.81;101256.72;5050428;28;20451;-69
2023/09/16 02:35:07;;;;;;;2.72;2.63;;;19.80;99.90;;;20.17;74.82;101262.94;5054458;28;20146;-69
2023/09/16 02:37:36;;;;;;;2.60;2.50;;;19.80;99.90;;;20.23;74.70;101257.38;5048279;28;20041;-69
2023/09/16 02:40:05;;;;;;;2.95;2.85;;;19.90;99.90;;;20.18;75.05;101264.75;5045359;28;20041;-69
2023/09/16 02:42:34;;;;;;;3.50;3.30;;;19.80;99.90;;;20.16;74.99;101263.88;5070442;28;20473;-69
2023/09/16 02:45:02;;;;;;;2.88;2.78;;;19.80;99.90;;;20.19;75.07;101266.47;5038731;28;20148;-69
2023/09/16 02:47:33;;;;;;;2.58;2.47;;;19.80;99.90;;;20.16;74.81;101269.25;5050572;28;20042;-69
2023/09/16 02:50:03;;;;;;;3.10;3.00;;;19.80;99.90;;;20.18;74.76;101261.13;5046354;28;20048;-69
2023/09/16 02:52:32;;;;;;;2.72;2.63;;;19.80;99.90;;;20.26;74.46;101261.75;5054057;28;20096;-69
2023/09/16 02:55:00;;;;;;;2.85;2.75;;;19.90;99.90;;;20.29;74.23;101262.53;5050457;28;20053;-69
2023/09/16 02:57:28;;;;;;;2.97;2.88;;;19.90;99.90;;;20.31;74.24;101262.47;5042225;28;20075;-69
2023/09/16 02:59:57;;;;;;;2.78;2.67;;;19.90;99.90;;;20.28;74.19;101252.72;5050346;28;20084;-70
2023/09/16 03:02:25;;;;;;;2.50;2.40;;;19.90;99.90;;;20.32;74.26;101262.41;5051125;28;20055;-69
2023/09/16 03:04:56;;;;;;;2.83;2.72;;;20.00;99.90;;;20.27;74.19;101258.13;5039087;28;20443;-69
2023/09/16 03:07:25;;;;;;;3.08;2.97;;;19.90;99.90;;;20.28;74.22;101258.09;5060314;28;20084;-69
2023/09/16 03:09:54;;;;;;;2.47;2.38;;;20.00;99.90;;;20.32;74.21;101250.78;5046182;28;20139;-69
2023/09/16 03:12:24;;;;;;;2.67;2.58;;;20.00;99.90;;;20.31;74.19;101252.59;5050949;28;20483;-69
2023/09/16 03:14:52;;;;;;;3.08;2.97;;;20.00;99.90;;;20.29;74.24;101250.88;5052962;28;20548;-69
2023/09/16 03:17:21;;;;;;;2.53;2.42;;;20.00;99.90;;;20.30;74.12;101248.16;5044706;28;20434;-69
2023/09/16 03:19:49;;;;;;;2.60;2.50;;;19.90;99.90;;;20.29;74.27;101246.41;5048059;28;20080;-69
2023/09/16 03:22:19;;;;;;;2.72;2.63;;;20.00;99.90;;;20.21;74.36;101243.13;5051672;28;20706;-69
2023/09/16 03:24:49;;;;;;;2.90;2.80;;;19.90;99.90;;;20.25;74.49;101244.75;5049847;28;20060;-69
2023/09/16 03:27:18;;;;;;;2.60;2.50;;;19.90;99.90;;;20.28;74.57;101250.03;5044841;28;20049;-69
2023/09/16 03:29:47;;;;;;;3.08;2.90;;;19.90;99.90;;;20.24;74.51;101237.66;5049086;28;20077;-69
2023/09/16 03:32:16;;;;;;;2.53;2.42;;;19.90;99.90;;;20.22;74.58;101241.31;5049100;28;20060;-69
2023/09/16 03:34:44;;;;;;;2.55;2.45;;;19.90;99.90;;;20.23;74.60;101241.25;5041005;28;20437;-70
2023/09/16 03:37:16;;;;;;;18.63;7.68;;;19.90;99.90;;;20.24;74.59;101243.03;5049642;28;20041;-70
2023/09/16 03:39:46;;;;;;;3.83;3.63;;;19.90;99.90;;;20.22;74.73;101235.94;5048657;28;20099;-70
2023/09/16 03:42:15;;;;;;;3.03;2.93;;;19.90;99.90;;;20.19;74.79;101244.13;5038061;28;20059;-70
2023/09/16 03:44:44;;;;;;;2.42;2.33;;;19.80;99.90;;;20.16;74.98;101238.81;5049156;28;20041;-69
2023/09/16 03:47:12;;;;;;;2.40;2.30;;;19.80;99.90;;;20.14;75.21;101232.63;5045034;28;20057;-69
2023/09/16 03:49:43;;;;;;;2.58;2.47;;;19.80;99.90;;;20.16;75.22;101228.97;5049840;28;20115;-69
2023/09/16 03:52:11;;;;;;;3.53;3.33;;;19.80;99.90;;;20.14;75.34;101228.16;5048982;28;20056;-69
2023/09/16 03:54:40;;;;;;;2.80;2.70;;;19.80;99.90;;;20.06;75.33;101226.66;5041411;28;20040;-69
2023/09/16 03:57:09;;;;;;;4.85;4.57;;;19.70;99.90;;;20.09;75.53;101232.78;5040998;28;20125;-69
2023/09/16 03:59:38;;;;;;;3.07;2.97;;;19.80;99.90;;;20.11;75.46;101232.78;5049764;28;20044;-69
2023/09/16 04:02:06;;;;;;;2.75;2.65;;;19.80;99.90;;;20.06;75.40;101232.03;5049187;28;20158;-69
2023/09/16 04:04:35;;;;;;;2.83;2.72;;;19.70;99.90;;;20.09;75.52;101227.44;5041615;28;20486;-69
2023/09/16 04:07:03;;;;;;;2.75;2.65;;;19.70;99.90;;;20.11;75.42;101225.56;5040072;28;20045;-69
2023/09/16 04:09:32;;;;;;;2.50;2.40;;;19.70;99.90;;;20.11;75.40;101230.94;5048929;28;20548;-69
2023/09/16 04:12:00;;;;;;;2.40;2.30;;;19.70;99.90;;;20.08;75.29;101224.81;5038282;28;20060;-69
2023/09/16 04:14:31;;;;;;;2.73;2.63;;;19.70;99.90;;;20.06;75.50;101216.81;5048405;28;20045;-69
2023/09/16 04:17:01;;;;;;;2.65;2.55;;;19.70;99.90;;;20.04;75.57;101229.41;5046194;28;20336;-69
2023/09/16 04:19:29;;;;;;;2.88;2.78;;;19.70;99.90;;;20.03;75.64;101233.06;5037078;28;20128;-69
2023/09/16 04:21:58;;;;;;;2.47;2.38;;;19.70;99.90;;;20.02;75.85;101222.34;5048426;28;20442;-69
2023/09/16 04:24:26;;;;;;;2.55;2.45;;;19.70;99.90;;;20.03;75.62;101225.00;5043805;28;20053;-69
2023/09/16 04:26:55;;;;;;;2.63;2.53;;;19.70;99.90;;;20.01;75.71;101220.59;5048693;28;20049;-69
2023/09/16 04:29:23;;;;;;;2.60;2.50;;;19.70;99.90;;;19.98;75.75;101223.38;5047630;28;20064;-68
2023/09/16 04:31:53;;;;;;;2.55;2.45;;;19.60;99.90;;;19.96;75.89;101226.13;5038686;28;20071;-69
2023/09/16 04:34:24;;;;;;;2.55;2.45;;;19.60;99.90;;;19.86;76.07;101211.28;5052711;28;20475;-69
2023/09/16 04:36:54;;;;;;;2.83;2.72;;;19.50;99.90;;;19.86;76.12;101213.97;5047912;28;20415;-69
2023/09/16 04:39:23;;;;;;;2.47;2.38;;;19.50;99.90;;;19.83;76.19;101219.47;5047454;28;20049;-69
2023/09/16 04:41:53;;;;;;;2.63;2.53;;;19.50;99.90;;;19.85;76.30;101206.00;5039373;28;20044;-69
2023/09/16 04:44:22;;;;;;;2.75;2.65;;;19.50;99.90;;;19.79;76.34;101209.78;5068324;28;20136;-69
2023/09/16 04:46:53;;;;;;;2.75;2.65;;;19.50;99.90;;;19.74;76.45;101196.53;5051629;28;20052;-69
2023/09/16 04:49:25;;;;;;;2.58;2.47;;;19.40;99.90;;;19.80;76.52;101204.34;5062943;28;20084;-69
2023/09/16 04:51:54;;;;;;;2.55;2.45;;;19.50;99.90;;;19.76;76.39;101209.91;5057013;28;20103;-69
2023/09/16 04:54:23;;;;;;;2.90;2.80;;;19.40;99.90;;;19.76;76.50;101218.81;5047543;28;20406;-69
2023/09/16 04:56:52;;;;;;;2.78;2.67;;;19.40;99.90;;;19.76;76.54;101213.44;5047603;28;20095;-69
2023/09/16 04:59:21;;;;;;;2.42;2.33;;;19.40;99.90;;;19.71;76.48;101219.91;5037268;28;20136;-69
2023/09/16 05:01:51;;;;;;;2.70;2.60;;;19.40;99.90;;;19.65;76.91;101215.66;5068092;28;20397;-69
2023/09/16 05:04:19;;;;;;;;;;;19.30;99.90;;;19.57;77.13;101216.84;5048651;28;20526;-69
2023/09/16 05:06:49;;;;;;;2.95;2.85;;;19.30;99.90;;;19.59;77.27;101214.97;5047864;28;20358;-69
2023/09/16 05:09:21;;;;;;;2.40;2.30;;;19.20;99.90;;;19.57;77.14;101212.38;5037891;28;20102;-69
2023/09/16 05:11:49;;;;;;;;;;;19.30;99.90;;;19.51;77.27;101217.09;5048689;28;20049;-69
2023/09/16 05:14:17;;;;;;;2.75;2.65;;;19.20;99.90;;;19.47;77.69;101215.44;5062896;28;20043;-69
2023/09/16 05:16:46;;;;;;;2.20;2.10;;;19.10;99.90;;;19.51;77.46;101201.00;5064915;28;20380;-69
2023/09/16 05:19:14;;;;;;;3.03;2.92;;;19.20;99.90;;;19.50;77.64;101208.16;5038646;28;20041;-69
2023/09/16 05:21:43;;;;;;;2.25;2.15;;;19.10;99.90;;;19.53;77.53;101212.56;5048133;28;20394;-69
2023/09/16 05:24:12;;;;;;;2.70;2.60;;;19.20;99.90;;;19.47;77.46;101213.63;5063625;28;20051;-69
2023/09/16 05:26:41;;;;;;;2.85;2.75;;;19.20;99.90;;;19.49;77.58;101213.59;5048936;28;20107;-69
2023/09/16 05:29:09;;;;;;;2.60;2.50;;;19.20;99.90;;;19.49;77.70;101217.13;5040008;28;20037;-69
2023/09/16 05:31:41;;;;;;;5.70;5.35;;;19.20;99.90;;;19.49;77.72;101224.31;5048023;28;20513;-69
2023/09/16 05:34:11;;;;;;;2.65;2.55;;;19.20;99.90;;;19.52;77.90;101224.19;5047498;28;20107;-69
2023/09/16 05:36:39;;;;;;;2.60;2.50;;;19.20;99.90;;;19.62;77.81;101222.94;5035886;28;20051;-69
2023/09/16 05:39:07;;;;;;;2.90;2.80;;;19.30;99.90;;;19.66;77.67;101232.66;5067798;28;20041;-69
2023/09/16 05:41:37;;;;;;;2.53;2.42;;;19.30;99.90;;;19.72;77.56;101222.53;5055058;28;20050;-69
2023/09/16 05:44:06;;;;;;;2.75;2.65;;;19.40;99.90;;;19.79;77.27;101221.41;5048689;28;20045;-69
2023/09/16 05:46:35;;;;;;;2.35;2.25;;;19.50;99.90;;;19.52;77.27;101176.78;5037250;28;20115;-69
2023/09/16 05:49:07;;;;;;;3.25;3.05;;;19.50;99.90;;;19.92;76.91;101221.81;5055005;28;20057;-68
2023/09/16 05:51:37;;;;;;;3.03;2.92;;;19.50;99.90;;;19.95;76.65;101228.88;5051016;28;20131;-68
2023/09/16 05:54:06;;;;;;;3.00;2.90;;;19.60;99.90;;;19.96;76.34;101219.88;5052425;28;20482;-68
2023/09/16 05:56:37;;;;;;;2.72;2.63;;;19.70;99.90;;;19.93;76.73;101226.28;5051056;28;20095;-68
2023/09/16 05:59:08;;;;;;;5.40;5.10;;;19.60;99.90;;;19.81;76.81;101224.03;5045138;28;20045;-68
2023/09/16 06:01:36;;;;;;;3.38;3.28;;;19.50;99.90;;;20.02;76.88;101225.03;5040328;28;20091;-68
2023/09/16 06:04:05;;;;;;;2.85;2.70;;;19.70;99.90;;;19.98;76.57;101234.13;5053829;28;20059;-68
2023/09/16 06:06:33;;;;;;;2.70;2.60;;;19.60;99.90;;;19.75;78.15;101230.50;5063926;28;20045;-68
2023/09/16 06:09:03;;;;;;;2.70;2.60;;;19.50;99.90;;;20.13;77.94;101237.13;5046010;28;20102;-69
2023/09/16 06:11:31;;;;;;;4.40;3.97;;;19.70;99.90;;;19.75;77.12;101194.72;5051035;28;20061;-68
2023/09/16 06:13:59;;;;;;;4.32;3.80;;;19.70;99.90;;;20.36;77.23;101242.53;5054388;28;20108;-68
2023/09/16 06:16:29;;;;;;;4.03;3.83;;;20.00;99.90;;;20.48;76.22;101242.06;5050584;28;20144;-69
2023/09/16 06:18:58;;;;;;;3.55;3.38;;;20.10;99.90;;;20.80;75.24;101251.53;5046486;28;20102;-68
2023/09/16 06:21:27;;;;;;;3.10;2.95;;;20.40;99.90;;;21.01;73.80;101265.97;5051193;28;20042;-68
2023/09/16 06:23:55;;;;;;;2.85;2.75;;;20.70;99.90;;;21.32;73.23;101264.63;5051026;28;20052;-68
2023/09/16 06:26:24;;;;;;;2.75;2.65;;;21.00;99.90;;;21.45;71.81;101247.00;5044085;28;20045;-69
2023/09/16 06:28:52;;;;;;;2.20;2.10;;;21.20;99.90;;;21.80;71.15;101268.81;5058362;28;20041;-69
2023/09/16 06:31:21;;;;;;;2.50;2.40;;;21.40;99.90;;;22.09;70.03;101271.13;5049822;28;20796;-69
2023/09/16 06:33:54;;;;;;;2.85;2.75;;;21.80;99.90;;;22.26;68.78;101268.56;5039081;28;20486;-69
2023/09/16 06:36:23;;;;;;;2.65;2.55;;;21.90;99.90;;;22.22;69.12;101267.81;5050873;28;20041;-69
2023/09/16 06:38:51;;;;;;;2.50;2.40;;;21.90;99.90;;;22.34;68.67;101269.94;5049042;28;20056;-69
2023/09/16 06:41:19;;;;;;;2.45;2.35;;;22.00;99.90;;;22.47;68.10;101264.88;5069179;28;20041;-69
2023/09/16 06:43:48;;;;;;;2.47;2.38;;;22.10;99.90;;;22.58;67.50;101261.66;5039369;28;20055;-69
2023/09/16 06:46:20;;;;;;;2.55;2.45;;;22.20;99.90;;;22.57;67.67;101260.78;5055014;28;20469;-69
2023/09/16 06:48:48;;;;;;;2.78;2.67;;;22.20;99.90;;;22.81;66.86;101267.72;5040683;28;20124;-69
2023/09/16 06:51:19;;;;;;;3.38;3.17;;;22.40;99.90;;;23.01;67.20;101269.44;5051402;28;20083;-69
2023/09/16 06:53:47;;;;;;;2.40;2.30;;;22.60;99.90;;;23.07;65.81;101270.00;5040984;28;20056;-69
2023/09/16 06:56:15;;;;;;;2.53;2.42;;;22.70;99.90;;;22.87;66.74;101271.94;5043471;28;20042;-69
2023/09/16 06:58:43;;;;;;;6.95;5.22;;;22.60;99.90;;;21.96;67.73;101270.81;5048603;28;20048;-70
2023/09/16 07:01:30;;;;;;;4.90;3.55;;;21.90;99.90;;;21.65;70.57;101275.78;5039145;28;20048;-70
2023/09/16 07:03:58;;;;;;;2.85;2.75;;;21.30;99.90;;;21.36;72.20;101270.75;5045031;28;20049;-70
2023/09/16 07:06:28;;;;;;;2.83;2.72;;;21.00;99.90;;;21.48;72.43;101271.13;5047872;28;20556;-70
2023/09/16 07:08:56;;;;;;;4.10;3.80;;;21.00;99.90;;;21.94;70.85;101269.13;5038475;28;20111;-69
2023/09/16 07:11:25;;;;;;;2.75;2.63;;;21.40;99.90;;;21.59;71.26;101265.25;5048673;28;20053;-69
2023/09/16 07:13:53;;;;;;;2.95;2.83;;;21.30;99.90;;;20.96;73.56;101246.41;5044274;28;20063;-70
2023/09/16 07:16:22;;;;;;;3.83;3.63;;;20.70;99.90;;;21.14;73.48;101272.59;5040678;28;20049;-69
2023/09/16 07:18:50;;;;;;;5.25;4.18;;;20.70;99.90;;;21.54;74.28;101272.69;5050233;28;20128;-70
2023/09/16 07:21:19;;;;;;;2.83;2.72;;;21.00;99.90;;;21.50;73.05;101268.38;5040575;28;20047;-69
2023/09/16 07:23:49;;;;;;;9.40;5.35;;;21.00;99.90;;;21.52;72.96;101269.19;5044101;28;20379;-69
2023/09/16 07:26:17;;;;;;;2.80;2.70;;;21.10;99.90;;;21.32;75.40;101267.31;5048899;28;20059;-69
2023/09/16 07:28:45;;;;;;;4.07;3.78;;;20.80;99.90;;;21.53;73.35;101265.53;5038083;28;20300;-69
2023/09/16 07:31:14;;;;;;;3.72;3.53;;;21.10;99.90;;;21.49;74.25;101270.16;5049213;28;20058;-69
2023/09/16 07:33:43;;;;;;;4.47;4.22;;;21.10;99.90;;;22.06;73.00;101268.59;5044857;28;20095;-69
2023/09/16 07:36:11;;;;;;;2.70;2.60;;;21.60;99.90;;;22.41;71.85;101276.78;5038700;28;20053;-70
2023/09/16 07:38:40;;;;;;;2.70;2.60;;;21.90;99.90;;;22.86;71.21;101276.47;5050143;28;20479;-69
2023/09/16 07:41:10;;;;;;;2.78;2.67;;;22.40;99.90;;;23.41;70.18;101279.16;5041338;28;20588;-69
2023/09/16 07:43:39;;;;;;;3.00;2.90;;;23.00;99.90;;;23.48;68.96;101278.75;5042637;28;20056;-69
2023/09/16 07:46:07;;;;;;;4.20;3.55;;;23.20;99.90;;;24.03;67.26;101284.91;5049403;28;20049;-69
2023/09/16 07:48:36;;;;;;;2.35;2.25;;;23.70;99.90;;;24.38;66.02;101286.59;5037379;28;20051;-69
2023/09/16 07:51:04;;;;;;;2.33;2.22;;;24.10;99.90;;;24.77;64.74;101286.25;5045868;28;20053;-69
2023/09/16 07:53:33;;;;;;;2.17;2.08;;;24.50;99.90;;;25.08;63.62;101297.06;5045511;28;20052;-70
2023/09/16 07:56:01;;;;;;;2.20;2.10;;;24.80;99.90;;;25.06;61.85;101299.00;5037153;28;20046;-70
2023/09/16 07:58:31;;;;;;;1.60;1.60;;;24.80;99.90;;;25.42;62.53;101307.72;5036908;28;20033;-70
2023/09/16 08:00:59;;;;;;;1.80;1.77;;;25.10;99.90;;;25.54;60.68;101307.00;5044952;28;20045;-70
2023/09/16 08:03:27;;;;;;;2.90;2.70;;;25.30;99.90;;;25.86;60.42;101316.75;5045534;28;20374;-70
2023/09/16 08:05:57;;;;;;;2.00;1.90;;;25.60;99.90;;;25.43;60.51;101309.47;5036145;28;20056;-70
2023/09/16 08:08:25;;;;;;;2.83;2.65;;;25.20;99.90;;;25.78;60.12;101310.94;5048995;28;20046;-71
2023/09/16 08:10:53;;;;;;;1.80;1.80;;;25.40;99.90;;;26.06;59.20;101312.88;5041175;28;20071;-70
2023/09/16 08:13:22;;;;;;;1.92;1.85;;;25.70;99.90;;;25.90;58.73;101312.03;5040499;28;20072;-70
2023/09/16 08:15:52;;;;;;;1.77;1.77;;;25.50;99.90;;;25.96;58.47;101308.94;5049670;28;20044;-70
2023/09/16 08:18:20;;;;;;;1.52;1.52;;;25.60;99.90;;;25.37;59.40;101309.78;5038368;28;20399;-70
2023/09/16 08:20:48;;;;;;;1.63;1.63;;;25.10;99.90;;;25.66;59.94;101308.97;5044007;28;20045;-70
2023/09/16 08:23:17;;;;;;;1.65;1.58;;;25.20;99.90;;;25.53;60.86;101317.94;5046525;28;20099;-70
2023/09/16 08:25:46;;;;;;;1.77;1.70;;;25.20;99.90;;;24.76;62.23;101316.94;5036873;28;20088;-70
2023/09/16 08:28:14;;;;;;;2.08;1.98;;;24.40;99.90;;;25.12;61.86;101311.31;5047941;28;20049;-70
2023/09/16 08:30:43;;;;;;;2.20;2.10;;;24.60;99.90;;;25.52;61.83;101314.34;5042516;28;20470;-70
2023/09/16 08:33:13;;;;;;;3.22;2.40;;;24.90;99.90;;;25.95;60.45;101320.78;5039267;28;20406;-70
2023/09/16 08:35:42;;;;;;;2.55;2.45;;;25.50;99.90;;;25.68;60.60;101314.31;5048989;28;20045;-70
2023/09/16 08:38:11;;;;;;;2.00;1.90;;;25.30;99.90;;;25.69;60.61;101313.31;5054623;28;20049;-70
2023/09/16 08:40:40;;;;;;;1.60;1.60;;;25.20;99.90;;;26.01;60.65;101327.66;5052787;28;20450;-70
2023/09/16 08:43:19;;;;;;;2.45;2.35;;;25.60;99.90;;;25.29;60.29;101320.19;5038320;28;20569;-70
2023/09/16 08:46:01;;;;;;;4.97;4.05;;;25.00;99.90;;;25.28;60.87;101326.56;5037244;28;20049;-70
2023/09/16 08:48:34;;;;;;;2.00;1.90;;;25.00;99.90;;;25.17;63.23;101326.31;5048410;28;20052;-70
2023/09/16 08:51:06;;;;;;;1.60;1.60;;;24.70;99.90;;;25.75;62.53;101326.50;5047520;28;20494;-70
2023/09/16 08:53:38;;;;;;;2.15;2.05;;;25.20;99.90;;;25.82;59.43;101331.47;5036455;28;20052;-70
2023/09/16 08:56:07;;;;;;;2.30;2.20;;;25.50;99.90;;;25.19;61.16;101331.63;5045030;28;20057;-70
2023/09/16 08:58:36;;;;;;;2.45;2.35;;;24.90;99.90;;;25.17;62.71;101315.47;5044074;28;20086;-70
2023/09/16 09:01:05;;;;;;;2.83;2.63;;;24.90;99.90;;;24.20;64.75;101340.81;5035986;28;20411;-70
2023/09/16 09:03:36;;;;;;;3.63;3.15;;;23.90;99.90;;;24.12;64.50;101338.47;5031732;28;20050;-70
2023/09/16 09:06:05;;;;;;;2.33;2.22;;;23.70;99.90;;;23.88;64.99;101342.44;5040543;28;20528;-70
2023/09/16 09:08:35;;;;;;;2.45;2.35;;;23.40;99.90;;;24.05;67.10;101334.34;5067835;28;20048;-69
2023/09/16 09:11:03;;;;;;;2.65;2.45;;;23.50;99.90;;;24.56;66.81;101330.69;5035987;28;20049;-70
2023/09/16 09:13:32;;;;;;;3.97;3.67;;;24.00;99.90;;;24.40;64.45;101335.19;5047531;28;20037;-69
2023/09/16 09:16:02;;;;;;;2.40;2.30;;;24.00;99.90;;;24.15;66.61;101332.94;5056889;28;20049;-70
2023/09/16 09:18:32;;;;;;;;;;;23.70;99.90;;;24.93;66.02;101342.13;5052880;28;20124;-70
2023/09/16 09:21:02;;;;;;;7.07;4.32;;;24.30;99.90;;;25.19;63.02;101343.34;5037420;28;19968;-70
2023/09/16 09:23:32;;;;;;;4.72;4.32;;;24.80;99.90;;;24.45;65.12;101341.22;5050195;28;20049;-71
2023/09/16 09:26:00;;;;;;;2.17;2.08;;;24.20;99.90;;;24.75;66.96;101351.28;5046995;28;20056;-71
2023/09/16 09:28:29;;;;;;;5.10;3.67;;;24.10;99.90;;;24.79;64.09;101346.56;5052011;28;20053;-71
2023/09/16 09:30:59;;;;;;;4.03;3.78;;;24.30;99.90;;;25.11;64.49;101336.63;5052605;28;20501;-70
2023/09/16 09:33:29;;;;;;;2.08;1.98;;;24.50;99.90;;;25.98;63.93;101354.97;5043562;28;20044;-70
2023/09/16 09:36:14;;;;;;;2.53;2.42;;;25.30;99.90;;;26.40;60.07;101336.09;5045252;28;20041;-71
2023/09/16 09:38:43;;;;;;;3.85;3.65;;;26.00;99.90;;;25.67;60.77;101347.78;5052552;28;20044;-70
2023/09/16 09:41:15;;;;;;;2.00;1.90;;;25.50;99.90;;;26.09;62.04;101353.38;5042131;28;20041;-70
2023/09/16 09:43:43;;;;;;;12.30;4.05;;;25.60;99.90;;;25.80;60.53;101356.94;5045839;28;20045;-70
2023/09/16 09:46:12;;;;;;;2.13;2.03;;;25.60;99.90;;;26.52;59.88;101351.59;5050292;28;20045;-70
2023/09/16 09:48:41;;;;;;;1.63;1.63;;;26.00;99.90;;;26.65;57.76;101352.56;5039550;28;20041;-70
2023/09/16 09:51:11;;;;;;;1.73;1.73;;;26.30;99.90;;;26.44;59.05;101359.34;5049349;28;20040;-70
2023/09/16 09:53:40;;;;;;;2.25;2.15;;;26.10;99.90;;;26.50;58.82;101359.81;5046890;28;20051;-70
2023/09/16 09:56:11;;;;;;;2.38;2.28;;;26.10;99.90;;;26.60;58.25;101361.00;5040492;28;20495;-70
2023/09/16 09:58:41;;;;;;;2.05;1.95;;;26.20;99.90;;;26.06;60.54;101358.09;5052130;28;20049;-70
2023/09/16 10:01:09;;;;;;;4.97;3.03;;;25.70;99.90;;;25.48;59.77;101347.13;5042952;28;20041;-70
2023/09/16 10:03:37;;;;;;;4.35;3.95;;;25.20;99.90;;;25.32;60.21;101360.63;5043616;28;20120;-70
2023/09/16 10:06:17;;;;;;;2.30;2.20;;;25.00;99.90;;;25.34;63.31;101353.31;5051012;28;20041;-70
2023/09/16 10:08:47;;;;;;;2.13;2.03;;;24.80;99.90;;;25.76;60.20;101358.09;5040766;28;20513;-70
2023/09/16 10:11:21;;;;;;;3.60;2.30;;;25.20;99.90;;;26.12;60.12;101360.44;5045842;28;20060;-70
2023/09/16 10:13:49;;;;;;;3.35;3.05;;;25.50;99.90;;;26.23;59.03;101355.25;5049958;28;20402;-70
2023/09/16 10:16:18;;;;;;;1.80;1.80;;;25.80;99.90;;;26.51;57.46;101360.72;5038858;28;20045;-70
2023/09/16 10:18:47;;;;;;;2.13;2.03;;;26.00;99.90;;;26.41;57.15;101357.69;5048713;28;20061;-69
2023/09/16 10:21:18;;;;;;;3.70;2.95;;;26.00;99.90;;;26.05;57.72;101345.50;5046445;28;20084;-70